sensor_id;sensor_type;location;lat;lon;timestamp;temperature;humidity
12977;DHT22;6553;48.412;9.514;2024-03-08T00:00:15;18.00;61.70
12977;DHT22;6553;48.412;9.514;2024-03-08T00:02:45;18.00;61.80
12977;DHT22;6553;48.412;9.514;2024-03-08T00:05:12;18.00;61.70
12977;DHT22;6553;48.412;9.514;2024-03-08T00:07:39;18.00;61.80
12977;DHT22;6553;48.412;9.514;2024-03-08T00:10:07;18.00;61.80
12977;DHT22;6553;48.412;9.514;2024-03-08T00:12:40;18.00;61.80
12977;DHT22;6553;48.412;9.514;2024-03-08T00:15:14;18.00;61.70
12977;DHT22;6553;48.412;9.514;2024-03-08T00:17:42;18.00;61.70
12977;DHT22;6553;48.412;9.514;2024-03-08T00:20:08;18.00;61.70
12977;DHT22;6553;48.412;9.514;2024-03-08T00:22:35;18.00;61.70
12977;DHT22;6553;48.412;9.514;2024-03-08T00:25:02;18.00;61.60
12977;DHT22;6553;48.412;9.514;2024-03-08T00:27:31;18.00;61.60
12977;DHT22;6553;48.412;9.514;2024-03-08T00:30:00;18.00;61.60
12977;DHT22;6553;48.412;9.514;2024-03-08T00:32:26;18.00;61.50
12977;DHT22;6553;48.412;9.514;2024-03-08T00:34:55;18.00;61.50
12977;DHT22;6553;48.412;9.514;2024-03-08T00:37:22;18.00;61.70
12977;DHT22;6553;48.412;9.514;2024-03-08T00:39:51;18.00;61.60
12977;DHT22;6553;48.412;9.514;2024-03-08T00:42:18;18.00;61.60
12977;DHT22;6553;48.412;9.514;2024-03-08T00:44:45;18.00;61.70
12977;DHT22;6553;48.412;9.514;2024-03-08T00:47:11;18.00;61.50
12977;DHT22;6553;48.412;9.514;2024-03-08T00:49:37;18.00;61.60
12977;DHT22;6553;48.412;9.514;2024-03-08T00:52:06;18.00;61.70
12977;DHT22;6553;48.412;9.514;2024-03-08T00:54:36;18.00;61.60
12977;DHT22;6553;48.412;9.514;2024-03-08T00:57:02;18.00;61.60
12977;DHT22;6553;48.412;9.514;2024-03-08T00:59:29;18.00;61.60
12977;DHT22;6553;48.412;9.514;2024-03-08T01:01:56;18.00;61.50
12977;DHT22;6553;48.412;9.514;2024-03-08T01:04:22;18.00;61.50
12977;DHT22;6553;48.412;9.514;2024-03-08T01:06:48;18.00;61.60
12977;DHT22;6553;48.412;9.514;2024-03-08T01:09:14;18.00;61.50
12977;DHT22;6553;48.412;9.514;2024-03-08T01:11:43;18.00;61.40
12977;DHT22;6553;48.412;9.514;2024-03-08T01:14:10;18.00;61.60
12977;DHT22;6553;48.412;9.514;2024-03-08T01:16:35;18.00;61.50
12977;DHT22;6553;48.412;9.514;2024-03-08T01:19:01;18.00;61.40
12977;DHT22;6553;48.412;9.514;2024-03-08T01:21:28;17.90;61.40
12977;DHT22;6553;48.412;9.514;2024-03-08T01:23:54;18.00;61.40
12977;DHT22;6553;48.412;9.514;2024-03-08T01:26:20;18.00;61.40
12977;DHT22;6553;48.412;9.514;2024-03-08T01:28:46;18.00;61.50
12977;DHT22;6553;48.412;9.514;2024-03-08T01:31:11;18.00;61.40
12977;DHT22;6553;48.412;9.514;2024-03-08T01:33:37;18.00;61.50
12977;DHT22;6553;48.412;9.514;2024-03-08T01:36:03;17.90;61.30
12977;DHT22;6553;48.412;9.514;2024-03-08T01:38:29;17.90;61.40
12977;DHT22;6553;48.412;9.514;2024-03-08T01:40:55;17.90;61.40
12977;DHT22;6553;48.412;9.514;2024-03-08T01:43:25;18.00;62.20
12977;DHT22;6553;48.412;9.514;2024-03-08T01:45:55;17.90;61.20
12977;DHT22;6553;48.412;9.514;2024-03-08T01:48:23;17.90;61.30
12977;DHT22;6553;48.412;9.514;2024-03-08T01:50:50;18.00;61.40
12977;DHT22;6553;48.412;9.514;2024-03-08T01:53:17;18.00;61.40
12977;DHT22;6553;48.412;9.514;2024-03-08T01:55:48;18.00;61.30
12977;DHT22;6553;48.412;9.514;2024-03-08T01:58:15;18.00;61.40
12977;DHT22;6553;48.412;9.514;2024-03-08T02:00:44;18.00;61.30
12977;DHT22;6553;48.412;9.514;2024-03-08T02:03:12;18.00;61.40
12977;DHT22;6553;48.412;9.514;2024-03-08T02:05:40;18.00;61.20
12977;DHT22;6553;48.412;9.514;2024-03-08T02:08:06;18.00;61.30
12977;DHT22;6553;48.412;9.514;2024-03-08T02:10:34;18.00;61.20
12977;DHT22;6553;48.412;9.514;2024-03-08T02:13:01;18.00;61.30
12977;DHT22;6553;48.412;9.514;2024-03-08T02:15:51;18.00;61.40
12977;DHT22;6553;48.412;9.514;2024-03-08T02:18:22;17.90;61.30
12977;DHT22;6553;48.412;9.514;2024-03-08T02:21:02;17.90;61.20
12977;DHT22;6553;48.412;9.514;2024-03-08T02:23:29;17.90;61.20
12977;DHT22;6553;48.412;9.514;2024-03-08T02:25:56;18.00;61.30
12977;DHT22;6553;48.412;9.514;2024-03-08T02:28:23;17.90;61.20
12977;DHT22;6553;48.412;9.514;2024-03-08T02:30:50;17.90;61.10
12977;DHT22;6553;48.412;9.514;2024-03-08T02:33:17;17.90;61.20
12977;DHT22;6553;48.412;9.514;2024-03-08T02:35:44;17.90;61.10
12977;DHT22;6553;48.412;9.514;2024-03-08T02:38:12;18.00;61.30
12977;DHT22;6553;48.412;9.514;2024-03-08T02:40:38;18.00;61.30
12977;DHT22;6553;48.412;9.514;2024-03-08T02:43:04;17.90;61.20
12977;DHT22;6553;48.412;9.514;2024-03-08T02:45:30;17.90;61.10
12977;DHT22;6553;48.412;9.514;2024-03-08T02:47:56;18.00;61.20
12977;DHT22;6553;48.412;9.514;2024-03-08T02:50:22;17.90;61.20
12977;DHT22;6553;48.412;9.514;2024-03-08T02:52:48;17.90;61.20
12977;DHT22;6553;48.412;9.514;2024-03-08T02:55:14;17.90;61.20
12977;DHT22;6553;48.412;9.514;2024-03-08T02:57:43;17.90;61.10
12977;DHT22;6553;48.412;9.514;2024-03-08T03:00:10;17.90;61.10
12977;DHT22;6553;48.412;9.514;2024-03-08T03:02:36;17.90;61.30
12977;DHT22;6553;48.412;9.514;2024-03-08T03:05:03;17.90;61.20
12977;DHT22;6553;48.412;9.514;2024-03-08T03:07:32;17.90;61.20
12977;DHT22;6553;48.412;9.514;2024-03-08T03:09:59;17.90;61.30
12977;DHT22;6553;48.412;9.514;2024-03-08T03:12:28;17.90;61.20
12977;DHT22;6553;48.412;9.514;2024-03-08T03:14:55;17.90;61.20
12977;DHT22;6553;48.412;9.514;2024-03-08T03:17:23;17.90;61.20
12977;DHT22;6553;48.412;9.514;2024-03-08T03:19:50;17.90;61.10
12977;DHT22;6553;48.412;9.514;2024-03-08T03:22:17;17.90;61.20
12977;DHT22;6553;48.412;9.514;2024-03-08T03:24:44;17.90;61.10
12977;DHT22;6553;48.412;9.514;2024-03-08T03:27:12;17.90;61.10
12977;DHT22;6553;48.412;9.514;2024-03-08T03:29:43;17.90;61.10
12977;DHT22;6553;48.412;9.514;2024-03-08T03:32:13;17.90;61.10
12977;DHT22;6553;48.412;9.514;2024-03-08T03:34:39;17.90;61.00
12977;DHT22;6553;48.412;9.514;2024-03-08T03:37:06;17.90;61.20
12977;DHT22;6553;48.412;9.514;2024-03-08T03:39:38;18.00;61.40
12977;DHT22;6553;48.412;9.514;2024-03-08T03:42:15;17.90;61.10
12977;DHT22;6553;48.412;9.514;2024-03-08T03:44:51;17.90;61.20
12977;DHT22;6553;48.412;9.514;2024-03-08T03:47:17;17.90;61.00
12977;DHT22;6553;48.412;9.514;2024-03-08T03:49:43;17.90;61.10
12977;DHT22;6553;48.412;9.514;2024-03-08T03:52:10;17.90;61.10
12977;DHT22;6553;48.412;9.514;2024-03-08T03:54:36;17.90;61.10
12977;DHT22;6553;48.412;9.514;2024-03-08T03:57:02;17.90;61.10
12977;DHT22;6553;48.412;9.514;2024-03-08T03:59:29;17.90;61.10
12977;DHT22;6553;48.412;9.514;2024-03-08T04:01:54;17.90;61.10
12977;DHT22;6553;48.412;9.514;2024-03-08T04:04:21;17.90;61.00
12977;DHT22;6553;48.412;9.514;2024-03-08T04:06:47;17.90;61.00
12977;DHT22;6553;48.412;9.514;2024-03-08T04:09:13;17.90;61.00
12977;DHT22;6553;48.412;9.514;2024-03-08T04:11:39;17.90;60.90
12977;DHT22;6553;48.412;9.514;2024-03-08T04:14:05;17.90;61.00
12977;DHT22;6553;48.412;9.514;2024-03-08T04:16:31;17.90;61.10
12977;DHT22;6553;48.412;9.514;2024-03-08T04:18:58;17.90;61.10
12977;DHT22;6553;48.412;9.514;2024-03-08T04:21:30;17.90;60.90
12977;DHT22;6553;48.412;9.514;2024-03-08T04:23:56;17.90;61.00
12977;DHT22;6553;48.412;9.514;2024-03-08T04:26:22;17.90;61.00
12977;DHT22;6553;48.412;9.514;2024-03-08T04:28:48;17.90;61.00
12977;DHT22;6553;48.412;9.514;2024-03-08T04:31:13;17.90;61.00
12977;DHT22;6553;48.412;9.514;2024-03-08T04:33:41;17.90;61.00
12977;DHT22;6553;48.412;9.514;2024-03-08T04:36:07;17.90;60.90
12977;DHT22;6553;48.412;9.514;2024-03-08T04:38:33;17.90;61.00
12977;DHT22;6553;48.412;9.514;2024-03-08T04:40:59;17.90;61.10
12977;DHT22;6553;48.412;9.514;2024-03-08T04:43:25;17.90;61.00
12977;DHT22;6553;48.412;9.514;2024-03-08T04:45:52;17.90;61.10
12977;DHT22;6553;48.412;9.514;2024-03-08T04:48:19;17.90;61.10
12977;DHT22;6553;48.412;9.514;2024-03-08T04:50:46;17.90;61.00
12977;DHT22;6553;48.412;9.514;2024-03-08T04:53:11;17.90;61.00
12977;DHT22;6553;48.412;9.514;2024-03-08T04:55:37;17.90;61.00
12977;DHT22;6553;48.412;9.514;2024-03-08T04:58:03;17.90;61.00
12977;DHT22;6553;48.412;9.514;2024-03-08T05:00:33;17.90;61.00
12977;DHT22;6553;48.412;9.514;2024-03-08T05:02:59;17.90;60.90
12977;DHT22;6553;48.412;9.514;2024-03-08T05:05:24;17.90;60.90
12977;DHT22;6553;48.412;9.514;2024-03-08T05:07:51;17.90;60.90
12977;DHT22;6553;48.412;9.514;2024-03-08T05:10:17;17.90;61.00
12977;DHT22;6553;48.412;9.514;2024-03-08T05:12:43;17.90;61.00
12977;DHT22;6553;48.412;9.514;2024-03-08T05:15:10;17.90;60.90
12977;DHT22;6553;48.412;9.514;2024-03-08T05:17:36;17.90;60.90
12977;DHT22;6553;48.412;9.514;2024-03-08T05:20:02;17.90;60.80
12977;DHT22;6553;48.412;9.514;2024-03-08T05:22:29;17.90;61.00
12977;DHT22;6553;48.412;9.514;2024-03-08T05:24:55;17.90;61.00
12977;DHT22;6553;48.412;9.514;2024-03-08T05:27:21;17.90;61.10
12977;DHT22;6553;48.412;9.514;2024-03-08T05:29:46;17.90;61.00
12977;DHT22;6553;48.412;9.514;2024-03-08T05:32:12;17.90;61.00
12977;DHT22;6553;48.412;9.514;2024-03-08T05:34:38;17.90;61.00
12977;DHT22;6553;48.412;9.514;2024-03-08T05:37:04;17.90;61.00
12977;DHT22;6553;48.412;9.514;2024-03-08T05:39:30;17.90;60.90
12977;DHT22;6553;48.412;9.514;2024-03-08T05:41:55;17.90;61.00
12977;DHT22;6553;48.412;9.514;2024-03-08T05:44:22;17.90;60.90
12977;DHT22;6553;48.412;9.514;2024-03-08T05:46:48;17.90;60.90
12977;DHT22;6553;48.412;9.514;2024-03-08T05:49:13;17.90;61.00
12977;DHT22;6553;48.412;9.514;2024-03-08T05:51:40;17.90;60.90
12977;DHT22;6553;48.412;9.514;2024-03-08T05:54:11;17.90;60.90
12977;DHT22;6553;48.412;9.514;2024-03-08T05:56:39;17.90;60.80
12977;DHT22;6553;48.412;9.514;2024-03-08T05:59:10;17.90;60.90
12977;DHT22;6553;48.412;9.514;2024-03-08T06:01:36;17.90;60.80
12977;DHT22;6553;48.412;9.514;2024-03-08T06:04:02;17.90;60.80
12977;DHT22;6553;48.412;9.514;2024-03-08T06:06:29;17.90;60.90
12977;DHT22;6553;48.412;9.514;2024-03-08T06:08:55;17.90;60.90
12977;DHT22;6553;48.412;9.514;2024-03-08T06:11:24;17.80;60.80
12977;DHT22;6553;48.412;9.514;2024-03-08T06:13:54;17.90;60.90
12977;DHT22;6553;48.412;9.514;2024-03-08T06:16:25;17.90;60.90
12977;DHT22;6553;48.412;9.514;2024-03-08T06:18:57;17.90;60.90
12977;DHT22;6553;48.412;9.514;2024-03-08T06:21:27;17.90;60.90
12977;DHT22;6553;48.412;9.514;2024-03-08T06:23:53;17.90;60.90
12977;DHT22;6553;48.412;9.514;2024-03-08T06:26:26;17.80;60.70
12977;DHT22;6553;48.412;9.514;2024-03-08T06:28:54;17.80;60.70
12977;DHT22;6553;48.412;9.514;2024-03-08T06:31:20;17.80;60.60
12977;DHT22;6553;48.412;9.514;2024-03-08T06:33:46;17.80;60.60
12977;DHT22;6553;48.412;9.514;2024-03-08T06:36:16;17.80;60.70
12977;DHT22;6553;48.412;9.514;2024-03-08T06:38:45;17.80;60.70
12977;DHT22;6553;48.412;9.514;2024-03-08T06:41:11;17.90;60.70
12977;DHT22;6553;48.412;9.514;2024-03-08T06:43:47;17.80;60.60
12977;DHT22;6553;48.412;9.514;2024-03-08T06:46:17;17.80;60.60
12977;DHT22;6553;48.412;9.514;2024-03-08T06:48:43;17.80;60.60
12977;DHT22;6553;48.412;9.514;2024-03-08T06:51:11;17.80;60.60
12977;DHT22;6553;48.412;9.514;2024-03-08T06:53:37;17.80;60.60
12977;DHT22;6553;48.412;9.514;2024-03-08T06:56:04;17.80;60.50
12977;DHT22;6553;48.412;9.514;2024-03-08T06:58:29;17.90;60.80
12977;DHT22;6553;48.412;9.514;2024-03-08T07:00:55;17.80;60.50
12977;DHT22;6553;48.412;9.514;2024-03-08T07:03:24;17.90;60.60
12977;DHT22;6553;48.412;9.514;2024-03-08T07:05:49;17.80;60.40
12977;DHT22;6553;48.412;9.514;2024-03-08T07:08:15;17.90;60.50
12977;DHT22;6553;48.412;9.514;2024-03-08T07:10:42;17.80;60.40
12977;DHT22;6553;48.412;9.514;2024-03-08T07:13:10;17.90;60.50
12977;DHT22;6553;48.412;9.514;2024-03-08T07:15:36;17.90;60.50
12977;DHT22;6553;48.412;9.514;2024-03-08T07:18:02;17.90;60.50
12977;DHT22;6553;48.412;9.514;2024-03-08T07:20:28;17.80;60.30
12977;DHT22;6553;48.412;9.514;2024-03-08T07:22:54;17.80;60.30
12977;DHT22;6553;48.412;9.514;2024-03-08T07:25:20;17.80;60.30
12977;DHT22;6553;48.412;9.514;2024-03-08T07:27:53;17.80;60.40
12977;DHT22;6553;48.412;9.514;2024-03-08T07:30:24;17.90;60.40
12977;DHT22;6553;48.412;9.514;2024-03-08T07:33:10;17.90;60.40
12977;DHT22;6553;48.412;9.514;2024-03-08T07:35:39;17.90;60.40
12977;DHT22;6553;48.412;9.514;2024-03-08T07:38:09;17.90;60.40
12977;DHT22;6553;48.412;9.514;2024-03-08T07:40:39;17.90;60.40
12977;DHT22;6553;48.412;9.514;2024-03-08T07:43:12;17.90;60.40
12977;DHT22;6553;48.412;9.514;2024-03-08T07:45:38;17.90;60.40
12977;DHT22;6553;48.412;9.514;2024-03-08T07:48:04;17.90;60.40
12977;DHT22;6553;48.412;9.514;2024-03-08T07:50:36;17.90;60.40
12977;DHT22;6553;48.412;9.514;2024-03-08T07:53:04;17.90;60.40
12977;DHT22;6553;48.412;9.514;2024-03-08T07:55:33;17.90;60.40
12977;DHT22;6553;48.412;9.514;2024-03-08T07:58:00;17.90;60.30
12977;DHT22;6553;48.412;9.514;2024-03-08T08:00:28;17.90;60.40
12977;DHT22;6553;48.412;9.514;2024-03-08T08:02:56;17.90;60.30
12977;DHT22;6553;48.412;9.514;2024-03-08T08:05:21;17.90;60.40
12977;DHT22;6553;48.412;9.514;2024-03-08T08:07:47;17.90;60.40
12977;DHT22;6553;48.412;9.514;2024-03-08T08:10:13;17.90;60.40
12977;DHT22;6553;48.412;9.514;2024-03-08T08:12:44;17.90;60.40
12977;DHT22;6553;48.412;9.514;2024-03-08T08:15:11;17.90;60.40
12977;DHT22;6553;48.412;9.514;2024-03-08T08:17:38;17.90;60.50
12977;DHT22;6553;48.412;9.514;2024-03-08T08:20:04;17.90;60.50
12977;DHT22;6553;48.412;9.514;2024-03-08T08:22:31;17.90;60.50
12977;DHT22;6553;48.412;9.514;2024-03-08T08:24:57;17.90;60.50
12977;DHT22;6553;48.412;9.514;2024-03-08T08:27:23;17.90;60.50
12977;DHT22;6553;48.412;9.514;2024-03-08T08:29:51;17.90;60.50
12977;DHT22;6553;48.412;9.514;2024-03-08T08:32:17;17.90;60.40
12977;DHT22;6553;48.412;9.514;2024-03-08T08:34:44;17.90;60.40
12977;DHT22;6553;48.412;9.514;2024-03-08T08:37:10;17.90;60.40
12977;DHT22;6553;48.412;9.514;2024-03-08T08:39:35;17.90;60.40
12977;DHT22;6553;48.412;9.514;2024-03-08T08:42:03;17.90;60.40
12977;DHT22;6553;48.412;9.514;2024-03-08T08:44:29;17.90;60.50
12977;DHT22;6553;48.412;9.514;2024-03-08T08:46:57;17.90;60.30
12977;DHT22;6553;48.412;9.514;2024-03-08T08:49:24;17.90;60.40
12977;DHT22;6553;48.412;9.514;2024-03-08T08:51:52;18.00;60.50
12977;DHT22;6553;48.412;9.514;2024-03-08T08:54:18;18.00;60.40
12977;DHT22;6553;48.412;9.514;2024-03-08T08:56:44;18.00;60.40
12977;DHT22;6553;48.412;9.514;2024-03-08T08:59:10;18.00;60.50
12977;DHT22;6553;48.412;9.514;2024-03-08T09:01:40;18.00;60.50
12977;DHT22;6553;48.412;9.514;2024-03-08T09:04:05;17.90;60.50
12977;DHT22;6553;48.412;9.514;2024-03-08T09:06:33;17.90;60.50
12977;DHT22;6553;48.412;9.514;2024-03-08T09:08:58;17.90;60.60
12977;DHT22;6553;48.412;9.514;2024-03-08T09:11:24;17.90;60.50
12977;DHT22;6553;48.412;9.514;2024-03-08T09:13:52;17.90;60.50
12977;DHT22;6553;48.412;9.514;2024-03-08T09:16:18;18.00;60.70
12977;DHT22;6553;48.412;9.514;2024-03-08T09:18:44;18.00;60.60
12977;DHT22;6553;48.412;9.514;2024-03-08T09:21:11;18.00;60.60
12977;DHT22;6553;48.412;9.514;2024-03-08T09:23:38;17.90;60.60
12977;DHT22;6553;48.412;9.514;2024-03-08T09:26:05;18.00;60.60
12977;DHT22;6553;48.412;9.514;2024-03-08T09:28:34;18.00;60.60
12977;DHT22;6553;48.412;9.514;2024-03-08T09:31:01;18.00;60.60
12977;DHT22;6553;48.412;9.514;2024-03-08T09:33:27;18.00;60.50
12977;DHT22;6553;48.412;9.514;2024-03-08T09:35:54;18.00;60.50
12977;DHT22;6553;48.412;9.514;2024-03-08T09:38:19;18.00;60.50
12977;DHT22;6553;48.412;9.514;2024-03-08T09:40:46;18.00;60.50
12977;DHT22;6553;48.412;9.514;2024-03-08T09:43:13;18.00;60.40
12977;DHT22;6553;48.412;9.514;2024-03-08T09:45:40;18.00;60.40
12977;DHT22;6553;48.412;9.514;2024-03-08T09:48:10;18.00;60.40
12977;DHT22;6553;48.412;9.514;2024-03-08T09:50:42;18.00;60.40
12977;DHT22;6553;48.412;9.514;2024-03-08T09:53:09;18.00;60.50
12977;DHT22;6553;48.412;9.514;2024-03-08T09:55:39;18.00;60.50
12977;DHT22;6553;48.412;9.514;2024-03-08T09:58:15;18.10;60.60
12977;DHT22;6553;48.412;9.514;2024-03-08T10:00:43;18.10;60.70
12977;DHT22;6553;48.412;9.514;2024-03-08T10:03:09;18.00;60.50
12977;DHT22;6553;48.412;9.514;2024-03-08T10:05:36;18.00;60.50
12977;DHT22;6553;48.412;9.514;2024-03-08T10:08:02;18.00;60.50
12977;DHT22;6553;48.412;9.514;2024-03-08T10:10:28;18.10;60.60
12977;DHT22;6553;48.412;9.514;2024-03-08T10:12:55;18.00;60.50
12977;DHT22;6553;48.412;9.514;2024-03-08T10:15:21;18.00;60.50
12977;DHT22;6553;48.412;9.514;2024-03-08T10:17:47;18.00;60.50
12977;DHT22;6553;48.412;9.514;2024-03-08T10:20:18;18.00;60.40
12977;DHT22;6553;48.412;9.514;2024-03-08T10:22:45;18.00;60.40
12977;DHT22;6553;48.412;9.514;2024-03-08T10:25:11;18.00;60.40
12977;DHT22;6553;48.412;9.514;2024-03-08T10:27:40;18.00;60.40
12977;DHT22;6553;48.412;9.514;2024-03-08T10:30:15;18.10;60.60
12977;DHT22;6553;48.412;9.514;2024-03-08T10:32:45;18.10;60.50
12977;DHT22;6553;48.412;9.514;2024-03-08T10:35:12;18.10;60.60
12977;DHT22;6553;48.412;9.514;2024-03-08T10:37:45;18.00;60.40
12977;DHT22;6553;48.412;9.514;2024-03-08T10:40:22;18.10;60.50
12977;DHT22;6553;48.412;9.514;2024-03-08T10:42:57;18.10;60.60
12977;DHT22;6553;48.412;9.514;2024-03-08T10:45:37;18.00;60.50
12977;DHT22;6553;48.412;9.514;2024-03-08T10:48:29;18.10;60.60
12977;DHT22;6553;48.412;9.514;2024-03-08T10:51:04;18.10;60.60
12977;DHT22;6553;48.412;9.514;2024-03-08T10:53:30;18.10;60.60
12977;DHT22;6553;48.412;9.514;2024-03-08T10:55:57;18.10;60.60
12977;DHT22;6553;48.412;9.514;2024-03-08T10:58:27;18.10;60.60
12977;DHT22;6553;48.412;9.514;2024-03-08T11:00:57;18.10;60.70
12977;DHT22;6553;48.412;9.514;2024-03-08T11:08:44;18.10;60.60
12977;DHT22;6553;48.412;9.514;2024-03-08T11:11:32;18.10;60.60
12977;DHT22;6553;48.412;9.514;2024-03-08T11:14:01;18.10;60.60
12977;DHT22;6553;48.412;9.514;2024-03-08T11:21:36;18.10;60.50
12977;DHT22;6553;48.412;9.514;2024-03-08T11:24:11;18.10;60.50
12977;DHT22;6553;48.412;9.514;2024-03-08T11:26:42;18.10;60.50
12977;DHT22;6553;48.412;9.514;2024-03-08T11:32:17;18.10;60.60
12977;DHT22;6553;48.412;9.514;2024-03-08T11:34:49;18.10;60.60
12977;DHT22;6553;48.412;9.514;2024-03-08T11:37:17;18.10;60.50
12977;DHT22;6553;48.412;9.514;2024-03-08T11:39:51;18.10;60.50
12977;DHT22;6553;48.412;9.514;2024-03-08T11:42:20;18.10;60.50
12977;DHT22;6553;48.412;9.514;2024-03-08T11:44:47;18.10;60.40
12977;DHT22;6553;48.412;9.514;2024-03-08T11:47:13;18.10;60.40
12977;DHT22;6553;48.412;9.514;2024-03-08T11:49:40;18.10;60.40
12977;DHT22;6553;48.412;9.514;2024-03-08T11:52:16;18.10;60.40
12977;DHT22;6553;48.412;9.514;2024-03-08T11:54:54;18.20;60.60
12977;DHT22;6553;48.412;9.514;2024-03-08T11:57:25;18.20;60.60
12977;DHT22;6553;48.412;9.514;2024-03-08T11:59:55;18.10;60.40
12977;DHT22;6553;48.412;9.514;2024-03-08T12:02:34;18.10;60.60
12977;DHT22;6553;48.412;9.514;2024-03-08T12:05:05;18.10;60.60
12977;DHT22;6553;48.412;9.514;2024-03-08T12:07:35;18.20;60.70
12977;DHT22;6553;48.412;9.514;2024-03-08T12:10:18;18.10;60.50
12977;DHT22;6553;48.412;9.514;2024-03-08T12:12:48;18.10;60.50
12977;DHT22;6553;48.412;9.514;2024-03-08T12:15:21;18.20;60.70
12977;DHT22;6553;48.412;9.514;2024-03-08T12:17:50;18.10;60.60
12977;DHT22;6553;48.412;9.514;2024-03-08T12:22:52;18.20;60.60
12977;DHT22;6553;48.412;9.514;2024-03-08T12:25:19;18.20;60.70
12977;DHT22;6553;48.412;9.514;2024-03-08T12:27:46;18.20;60.70
12977;DHT22;6553;48.412;9.514;2024-03-08T12:30:26;18.20;60.60
12977;DHT22;6553;48.412;9.514;2024-03-08T12:32:57;18.10;60.70
12977;DHT22;6553;48.412;9.514;2024-03-08T12:35:25;18.10;60.60
12977;DHT22;6553;48.412;9.514;2024-03-08T12:37:56;18.10;60.60
12977;DHT22;6553;48.412;9.514;2024-03-08T12:40:31;18.10;60.60
12977;DHT22;6553;48.412;9.514;2024-03-08T12:42:58;18.10;60.60
12977;DHT22;6553;48.412;9.514;2024-03-08T12:45:25;18.20;60.90
12977;DHT22;6553;48.412;9.514;2024-03-08T12:47:54;18.10;60.60
12977;DHT22;6553;48.412;9.514;2024-03-08T12:50:23;18.20;60.80
12977;DHT22;6553;48.412;9.514;2024-03-08T12:52:52;18.10;60.70
12977;DHT22;6553;48.412;9.514;2024-03-08T12:55:18;18.10;60.80
12977;DHT22;6553;48.412;9.514;2024-03-08T12:57:44;18.10;60.80
12977;DHT22;6553;48.412;9.514;2024-03-08T13:00:11;18.10;60.80
12977;DHT22;6553;48.412;9.514;2024-03-08T13:02:47;18.10;60.80
12977;DHT22;6553;48.412;9.514;2024-03-08T13:05:13;18.10;60.80
12977;DHT22;6553;48.412;9.514;2024-03-08T13:07:42;18.10;60.90
12977;DHT22;6553;48.412;9.514;2024-03-08T13:10:15;18.10;60.90
12977;DHT22;6553;48.412;9.514;2024-03-08T13:12:42;18.10;60.90
12977;DHT22;6553;48.412;9.514;2024-03-08T13:15:09;18.10;60.90
12977;DHT22;6553;48.412;9.514;2024-03-08T13:17:41;18.10;60.90
12977;DHT22;6553;48.412;9.514;2024-03-08T13:20:08;18.10;61.00
12977;DHT22;6553;48.412;9.514;2024-03-08T13:22:35;18.10;61.00
12977;DHT22;6553;48.412;9.514;2024-03-08T13:25:02;18.10;60.90
12977;DHT22;6553;48.412;9.514;2024-03-08T13:27:28;18.20;61.00
12977;DHT22;6553;48.412;9.514;2024-03-08T13:29:54;18.10;60.80
12977;DHT22;6553;48.412;9.514;2024-03-08T13:32:20;18.10;60.90
12977;DHT22;6553;48.412;9.514;2024-03-08T13:34:49;18.10;60.90
12977;DHT22;6553;48.412;9.514;2024-03-08T13:37:19;18.10;60.90
12977;DHT22;6553;48.412;9.514;2024-03-08T13:39:45;18.10;60.80
12977;DHT22;6553;48.412;9.514;2024-03-08T13:42:14;18.10;60.70
12977;DHT22;6553;48.412;9.514;2024-03-08T13:44:45;18.10;60.70
12977;DHT22;6553;48.412;9.514;2024-03-08T13:47:13;18.10;60.70
12977;DHT22;6553;48.412;9.514;2024-03-08T13:49:43;18.10;60.60
12977;DHT22;6553;48.412;9.514;2024-03-08T13:52:10;18.10;60.60
12977;DHT22;6553;48.412;9.514;2024-03-08T13:54:38;18.10;60.60
12977;DHT22;6553;48.412;9.514;2024-03-08T13:57:04;18.10;60.60
12977;DHT22;6553;48.412;9.514;2024-03-08T13:59:31;18.10;60.60
12977;DHT22;6553;48.412;9.514;2024-03-08T14:01:59;18.10;60.60
12977;DHT22;6553;48.412;9.514;2024-03-08T14:04:27;18.10;60.60
12977;DHT22;6553;48.412;9.514;2024-03-08T14:06:54;18.10;60.50
12977;DHT22;6553;48.412;9.514;2024-03-08T14:09:23;18.10;60.60
12977;DHT22;6553;48.412;9.514;2024-03-08T14:11:51;18.10;60.60
12977;DHT22;6553;48.412;9.514;2024-03-08T14:14:21;18.10;60.60
12977;DHT22;6553;48.412;9.514;2024-03-08T14:16:49;18.10;60.50
12977;DHT22;6553;48.412;9.514;2024-03-08T14:19:19;18.10;60.50
12977;DHT22;6553;48.412;9.514;2024-03-08T14:21:46;18.10;60.60
12977;DHT22;6553;48.412;9.514;2024-03-08T14:24:14;18.10;60.60
12977;DHT22;6553;48.412;9.514;2024-03-08T14:26:42;18.10;60.60
12977;DHT22;6553;48.412;9.514;2024-03-08T14:29:08;18.10;60.60
12977;DHT22;6553;48.412;9.514;2024-03-08T14:31:37;18.10;60.60
12977;DHT22;6553;48.412;9.514;2024-03-08T14:34:04;18.10;60.60
12977;DHT22;6553;48.412;9.514;2024-03-08T14:36:30;18.10;60.70
12977;DHT22;6553;48.412;9.514;2024-03-08T14:38:56;18.10;60.70
12977;DHT22;6553;48.412;9.514;2024-03-08T14:41:21;18.10;60.70
12977;DHT22;6553;48.412;9.514;2024-03-08T14:43:50;18.10;60.70
12977;DHT22;6553;48.412;9.514;2024-03-08T14:46:18;18.10;60.70
12977;DHT22;6553;48.412;9.514;2024-03-08T14:48:53;18.10;60.60
12977;DHT22;6553;48.412;9.514;2024-03-08T14:51:19;18.10;60.60
12977;DHT22;6553;48.412;9.514;2024-03-08T14:53:52;18.10;60.60
12977;DHT22;6553;48.412;9.514;2024-03-08T14:56:20;18.10;60.60
12977;DHT22;6553;48.412;9.514;2024-03-08T14:58:46;18.10;60.60
12977;DHT22;6553;48.412;9.514;2024-03-08T15:01:15;18.10;60.50
12977;DHT22;6553;48.412;9.514;2024-03-08T15:03:44;18.10;60.60
12977;DHT22;6553;48.412;9.514;2024-03-08T15:06:10;18.10;60.50
12977;DHT22;6553;48.412;9.514;2024-03-08T15:08:39;18.10;60.60
12977;DHT22;6553;48.412;9.514;2024-03-08T15:11:06;18.10;60.50
12977;DHT22;6553;48.412;9.514;2024-03-08T15:13:33;18.10;60.60
12977;DHT22;6553;48.412;9.514;2024-03-08T15:16:10;18.10;60.60
12977;DHT22;6553;48.412;9.514;2024-03-08T15:18:42;18.10;60.60
12977;DHT22;6553;48.412;9.514;2024-03-08T15:21:12;18.10;60.50
12977;DHT22;6553;48.412;9.514;2024-03-08T15:23:43;18.10;60.50
12977;DHT22;6553;48.412;9.514;2024-03-08T15:26:13;18.10;60.50
12977;DHT22;6553;48.412;9.514;2024-03-08T15:28:38;18.20;60.70
12977;DHT22;6553;48.412;9.514;2024-03-08T15:31:06;18.10;60.50
12977;DHT22;6553;48.412;9.514;2024-03-08T15:33:33;18.10;60.50
12977;DHT22;6553;48.412;9.514;2024-03-08T15:36:00;18.10;60.50
12977;DHT22;6553;48.412;9.514;2024-03-08T15:38:35;18.20;60.60
12977;DHT22;6553;48.412;9.514;2024-03-08T15:41:03;18.10;60.50
12977;DHT22;6553;48.412;9.514;2024-03-08T15:43:35;18.10;60.40
12977;DHT22;6553;48.412;9.514;2024-03-08T15:46:03;18.10;60.60
12977;DHT22;6553;48.412;9.514;2024-03-08T15:48:33;18.10;60.50
12977;DHT22;6553;48.412;9.514;2024-03-08T15:51:06;18.10;60.50
12977;DHT22;6553;48.412;9.514;2024-03-08T15:53:33;18.10;60.60
12977;DHT22;6553;48.412;9.514;2024-03-08T15:56:01;18.10;60.60
12977;DHT22;6553;48.412;9.514;2024-03-08T15:58:28;18.10;60.60
12977;DHT22;6553;48.412;9.514;2024-03-08T16:00:56;18.10;60.50
12977;DHT22;6553;48.412;9.514;2024-03-08T16:03:22;18.10;60.60
12977;DHT22;6553;48.412;9.514;2024-03-08T16:05:49;18.10;60.60